createdAt,value
2019-06-26T00:01:19.359Z,100843.66
2019-06-26T00:03:48.497Z,100842.65
2019-06-26T00:06:17.471Z,100842.12
2019-06-26T00:08:46.508Z,100838.89
2019-06-26T00:11:15.570Z,100844.31
2019-06-26T00:13:44.532Z,100842.94
2019-06-26T00:16:13.329Z,100847.09
2019-06-26T00:18:42.481Z,100848.95
2019-06-26T00:21:11.446Z,100846.83
2019-06-26T00:23:40.530Z,100858.41
2019-06-26T00:26:09.375Z,100847.47
2019-06-26T00:28:38.449Z,100853.30
2019-06-26T00:31:07.378Z,100847.05
2019-06-26T00:33:36.339Z,100850.41
2019-06-26T00:36:05.471Z,100850.70
2019-06-26T00:38:34.568Z,100847.44
2019-06-26T00:41:03.463Z,100853.17
2019-06-26T00:43:41.854Z,100850.42
2019-06-26T00:46:03.144Z,100847.41
2019-06-26T00:48:31.979Z,100852.08
2019-06-26T00:51:00.931Z,100853.74
2019-06-26T00:53:29.848Z,100857.77
2019-06-26T00:55:58.914Z,100857.83
2019-06-26T00:58:27.887Z,100860.86
2019-06-26T01:00:56.834Z,100863.11
2019-06-26T01:03:25.827Z,100858.74
2019-06-26T01:05:54.784Z,100864.75
2019-06-26T01:08:23.723Z,100866.14
2019-06-26T01:10:52.705Z,100866.73
2019-06-26T01:13:21.718Z,100871.55
2019-06-26T01:15:50.784Z,100859.24
2019-06-26T01:18:19.843Z,100866.36
2019-06-26T01:20:48.933Z,100862.02
2019-06-26T01:23:17.943Z,100861.80
2019-06-26T01:25:46.982Z,100863.17
2019-06-26T01:28:15.917Z,100874.91
2019-06-26T01:30:44.895Z,100866.74
2019-06-26T01:33:15.796Z,100874.72
2019-06-26T01:35:44.465Z,100875.27
2019-06-26T01:38:13.351Z,100874.98
2019-06-26T01:40:42.190Z,100867.09
2019-06-26T01:43:11.221Z,100872.03
2019-06-26T01:45:40.135Z,100875.02
2019-06-26T01:48:09.117Z,100869.28
2019-06-26T01:50:37.938Z,100871.19
2019-06-26T01:53:06.822Z,100878.02
2019-06-26T01:55:35.722Z,100868.45
2019-06-26T01:58:04.636Z,100869.55
2019-06-26T02:00:33.748Z,100869.52
2019-06-26T02:03:02.598Z,100851.46
2019-06-26T02:05:31.487Z,100871.99
2019-06-26T02:08:00.410Z,100871.45
2019-06-26T02:10:29.311Z,100877.98
2019-06-26T02:12:58.126Z,100876.38
2019-06-26T02:15:26.991Z,100874.73
2019-06-26T02:17:56.239Z,100876.38
2019-06-26T02:20:25.184Z,100879.67
2019-06-26T02:22:54.177Z,100875.56
2019-06-26T02:25:23.462Z,100878.61
2019-06-26T02:27:52.479Z,100878.59
2019-06-26T02:30:21.847Z,100885.16
2019-06-26T02:32:50.853Z,100883.80
2019-06-26T02:35:19.961Z,100874.23
2019-06-26T02:37:48.839Z,100868.19
2019-06-26T02:40:18.244Z,100873.09
2019-06-26T02:42:47.204Z,100871.48
2019-06-26T02:45:16.364Z,100871.19
2019-06-26T02:47:45.219Z,100878.86
2019-06-26T02:50:14.229Z,100875.86
2019-06-26T02:52:43.032Z,100874.22
2019-06-26T02:55:12.218Z,100875.03
2019-06-26T02:57:41.246Z,100878.86
2019-06-26T03:00:10.999Z,100886.80
2019-06-26T03:02:39.997Z,100885.14
2019-06-26T03:05:08.969Z,100888.69
2019-06-26T03:07:37.980Z,100886.23
2019-06-26T03:10:07.143Z,100884.31
2019-06-26T03:12:36.128Z,100888.37
2019-06-26T03:15:09.168Z,100892.66
2019-06-26T03:17:36.318Z,100897.33
2019-06-26T03:20:05.562Z,100896.22
2019-06-26T03:22:34.557Z,100895.64
2019-06-26T03:25:03.571Z,100894.87
2019-06-26T03:27:32.468Z,100895.20
2019-06-26T03:30:01.371Z,100898.95
2019-06-26T03:32:30.292Z,100898.14
2019-06-26T03:34:59.341Z,100899.20
2019-06-26T03:37:28.123Z,100897.53
2019-06-26T03:39:57.067Z,100899.20
2019-06-26T03:42:26.015Z,100898.65
2019-06-26T03:44:54.943Z,100904.69
2019-06-26T03:47:23.866Z,100905.88
2019-06-26T03:49:52.741Z,100906.41
2019-06-26T03:52:21.742Z,100910.73
2019-06-26T03:54:50.756Z,100916.80
2019-06-26T03:57:19.687Z,100911.87
2019-06-26T03:59:48.599Z,100911.06
2019-06-26T04:02:17.411Z,100914.34
2019-06-26T04:04:46.352Z,100909.42
2019-06-26T04:07:15.210Z,100913.03
2019-06-26T04:09:44.027Z,100913.03
2019-06-26T04:12:13.074Z,100917.95
2019-06-26T04:14:42.154Z,100929.17
2019-06-26T04:17:11.150Z,100926.45
2019-06-26T04:19:40.081Z,100930.03
2019-06-26T04:22:09.010Z,100930.30
2019-06-26T04:24:37.850Z,100933.88
2019-06-26T04:27:06.833Z,100934.19
2019-06-26T04:29:35.825Z,100932.54
2019-06-26T04:32:04.798Z,100933.09
2019-06-26T04:34:33.558Z,100934.45
2019-06-26T04:37:02.540Z,100926.50
2019-06-26T04:39:31.565Z,100934.65
2019-06-26T04:42:00.678Z,100939.84
2019-06-26T04:44:29.671Z,100946.69
2019-06-26T04:46:58.670Z,100944.73
2019-06-26T04:49:27.483Z,100950.13
2019-06-26T04:51:56.379Z,100948.11
2019-06-26T04:54:25.419Z,100957.67
2019-06-26T04:56:54.414Z,100954.86
2019-06-26T04:59:23.354Z,100961.93
2019-06-26T05:01:52.418Z,100958.52
2019-06-26T05:04:21.290Z,100963.30
2019-06-26T05:06:50.212Z,100963.45
2019-06-26T05:09:19.268Z,100974.51
2019-06-26T05:11:48.271Z,100976.54
2019-06-26T05:14:17.274Z,100980.53
2019-06-26T05:16:46.437Z,100975.06
2019-06-26T05:19:15.439Z,100973.88
2019-06-26T05:21:44.395Z,100975.67
2019-06-26T05:24:13.228Z,100978.47
2019-06-26T05:26:42.229Z,100982.64
2019-06-26T05:29:11.188Z,100981.00
2019-06-26T05:31:40.080Z,100975.20
2019-06-26T05:34:11.050Z,100980.58
2019-06-26T05:36:39.742Z,100984.56
2019-06-26T05:39:08.936Z,100976.27
2019-06-26T05:41:37.897Z,100979.33
2019-06-26T05:44:07.432Z,100985.85
2019-06-26T05:46:36.306Z,100986.20
2019-06-26T05:49:05.307Z,100988.70
2019-06-26T05:51:34.337Z,100997.31
2019-06-26T05:54:03.317Z,100990.73
2019-06-26T05:56:32.216Z,100995.42
2019-06-26T05:59:01.160Z,100996.62
2019-06-26T06:01:30.086Z,100998.38
2019-06-26T06:03:59.127Z,101004.62
2019-06-26T06:06:41.074Z,100997.75
2019-06-26T06:08:59.146Z,101000.29
2019-06-26T06:11:28.208Z,100995.01
2019-06-26T06:13:57.173Z,100997.19
2019-06-26T06:16:26.204Z,100995.59
2019-06-26T06:18:55.287Z,100995.56
2019-06-26T06:21:24.128Z,101000.59
2019-06-26T06:23:53.202Z,100997.39
2019-06-26T06:26:22.154Z,101001.89
2019-06-26T06:28:51.199Z,101006.85
2019-06-26T06:31:20.185Z,101011.47
2019-06-26T06:33:49.231Z,101015.34
2019-06-26T06:36:18.161Z,101016.63
2019-06-26T06:38:47.105Z,101016.59
2019-06-26T06:41:16.014Z,101026.83
2019-06-26T06:43:44.944Z,101026.83
2019-06-26T06:46:13.785Z,101029.94
2019-06-26T06:48:42.761Z,101037.31
2019-06-26T06:51:13.075Z,101034.94
2019-06-26T06:53:42.012Z,101035.44
2019-06-26T06:56:11.118Z,101046.72
2019-06-26T06:58:40.078Z,101040.70
2019-06-26T07:01:09.255Z,101041.28
2019-06-26T07:03:38.217Z,101043.91
2019-06-26T07:06:07.286Z,101045.80
2019-06-26T07:08:36.358Z,101055.31
2019-06-26T07:11:05.250Z,101051.10
2019-06-26T07:13:34.106Z,101052.62
2019-06-26T07:16:03.048Z,101051.40
2019-06-26T07:18:31.941Z,101052.66
2019-06-26T07:21:00.993Z,101052.56
2019-06-26T07:23:29.816Z,101053.63
2019-06-26T07:25:58.890Z,101047.61
2019-06-26T07:28:27.826Z,101051.64
2019-06-26T07:30:56.687Z,101054.95
2019-06-26T07:33:26.282Z,101054.81
2019-06-26T07:35:55.427Z,101060.92
2019-06-26T07:38:24.420Z,101058.55
2019-06-26T07:40:53.476Z,101059.19
2019-06-26T07:43:22.396Z,101064.91
2019-06-26T07:45:51.330Z,101069.92
2019-06-26T07:48:20.274Z,101065.55
2019-06-26T07:50:49.269Z,101070.29
2019-06-26T07:53:18.172Z,101073.40
2019-06-26T07:55:47.171Z,101075.80
2019-06-26T07:58:16.120Z,101070.21
2019-06-26T08:00:45.189Z,101077.72
2019-06-26T08:03:14.105Z,101084.89
2019-06-26T08:05:43.486Z,101083.90
2019-06-26T08:08:14.801Z,101082.16
2019-06-26T08:10:43.558Z,101089.42
2019-06-26T08:13:12.459Z,101087.45
2019-06-26T08:15:41.424Z,101085.51
2019-06-26T08:18:10.679Z,101091.84
2019-06-26T08:20:55.377Z,101089.61
2019-06-26T08:23:12.453Z,101094.45
2019-06-26T08:25:41.512Z,101090.48
2019-06-26T08:28:10.412Z,101094.31
2019-06-26T08:30:39.669Z,101102.44
2019-06-26T08:33:08.776Z,101093.81
2019-06-26T08:35:37.699Z,101097.10
2019-06-26T08:38:12.411Z,101089.51
2019-06-26T08:40:37.475Z,101098.20
2019-06-26T08:43:06.431Z,101094.38
2019-06-26T08:45:35.389Z,101092.77
2019-06-26T08:48:18.871Z,101094.64
2019-06-26T08:50:36.656Z,101089.72
2019-06-26T08:53:05.621Z,101092.00
2019-06-26T08:55:34.665Z,101095.67
2019-06-26T08:58:03.693Z,101088.14
2019-06-26T09:00:32.739Z,101090.09
2019-06-26T09:03:01.668Z,101092.45
2019-06-26T09:05:47.063Z,101081.66
2019-06-26T09:08:01.405Z,101085.48
2019-06-26T09:10:30.241Z,101085.94
2019-06-26T09:12:59.528Z,101082.77
2019-06-26T09:15:28.505Z,101075.80
2019-06-26T09:17:59.177Z,101078.36
2019-06-26T09:20:35.298Z,101081.02
2019-06-26T09:23:04.349Z,101084.39
2019-06-26T09:25:33.240Z,101079.98
2019-06-26T09:28:02.253Z,101077.73
2019-06-26T09:30:31.623Z,101082.83
2019-06-26T09:33:00.663Z,101080.71
2019-06-26T09:35:29.898Z,101082.62
2019-06-26T09:37:58.862Z,101079.73
2019-06-26T09:40:31.663Z,101078.20
2019-06-26T09:42:58.730Z,101075.86
2019-06-26T09:45:27.980Z,101080.06
2019-06-26T09:47:57.114Z,101078.91
2019-06-26T09:50:26.114Z,101075.69
2019-06-26T09:52:54.936Z,101080.55
2019-06-26T09:55:26.794Z,101072.80
2019-06-26T09:57:55.976Z,101067.84
2019-06-26T10:00:25.429Z,101080.36
2019-06-26T10:02:54.661Z,101078.86
2019-06-26T10:05:23.700Z,101071.89
2019-06-26T10:07:52.790Z,101081.20
2019-06-26T10:10:22.594Z,101077.47
2019-06-26T10:12:51.974Z,101076.06
2019-06-26T10:15:21.366Z,101082.77
2019-06-26T10:17:50.428Z,101076.77
2019-06-26T10:20:20.044Z,101072.91
2019-06-26T10:22:49.122Z,101076.88
2019-06-26T10:25:18.575Z,101063.48
2019-06-26T10:27:47.685Z,101074.67
2019-06-26T10:30:17.340Z,101075.48
2019-06-26T10:32:46.322Z,101076.84
2019-06-26T10:35:16.164Z,101071.99
2019-06-26T10:37:45.135Z,101076.88
2019-06-26T10:40:16.322Z,101073.53
2019-06-26T10:42:45.069Z,101066.17
2019-06-26T10:45:14.502Z,101060.19
2019-06-26T10:47:43.431Z,101062.27
2019-06-26T10:50:12.800Z,101058.94
2019-06-26T10:52:43.236Z,101063.16
2019-06-26T10:55:12.389Z,101059.65
2019-06-26T10:57:41.514Z,101054.95
2019-06-26T11:00:11.320Z,101054.66
2019-06-26T11:02:40.351Z,101053.66
2019-06-26T11:05:10.216Z,101048.06
2019-06-26T11:07:39.093Z,101046.63
2019-06-26T11:10:09.108Z,101043.36
2019-06-26T11:12:38.255Z,101047.47
2019-06-26T11:15:07.655Z,101042.17
2019-06-26T11:17:36.679Z,101041.81
2019-06-26T11:20:07.130Z,101047.41
2019-06-26T11:22:36.508Z,101036.75
2019-06-26T11:25:05.741Z,101032.27
2019-06-26T11:27:34.825Z,101030.44
2019-06-26T11:30:04.846Z,101026.23
2019-06-26T11:32:33.949Z,101018.53
2019-06-26T11:35:03.058Z,101018.57
2019-06-26T11:37:32.198Z,101017.55
2019-06-26T11:40:01.216Z,101017.19
2019-06-26T11:42:32.723Z,101021.58
2019-06-26T11:45:01.084Z,101023.59
2019-06-26T11:47:30.141Z,101019.25
2019-06-26T11:50:00.422Z,101019.85
2019-06-26T11:52:29.530Z,101020.07
2019-06-26T11:55:03.440Z,101020.64
2019-06-26T11:57:32.338Z,101019.51
2019-06-26T12:00:01.991Z,100998.13
2019-06-26T12:02:31.003Z,101016.81
2019-06-26T12:04:59.941Z,101012.68
2019-06-26T12:07:28.969Z,101014.89
2019-06-26T12:09:58.255Z,101016.74
2019-06-26T12:12:27.480Z,101015.77
2019-06-26T12:14:56.563Z,101010.47
2019-06-26T12:17:25.591Z,101012.33
2019-06-26T12:19:54.562Z,101008.20
2019-06-26T12:22:23.498Z,101008.66
2019-06-26T12:24:53.047Z,101007.54
2019-06-26T12:27:22.148Z,101007.74
2019-06-26T12:29:51.131Z,101008.38
2019-06-26T12:32:20.490Z,101006.94
2019-06-26T12:34:49.693Z,101003.98
2019-06-26T12:37:18.702Z,101000.09
2019-06-26T12:39:48.627Z,101001.35
2019-06-26T12:42:17.514Z,100997.53
2019-06-26T12:44:46.467Z,100996.77
2019-06-26T12:47:15.414Z,100991.38
2019-06-26T12:49:44.359Z,100997.79
2019-06-26T12:52:16.856Z,100991.96
2019-06-26T12:54:44.149Z,100996.59
2019-06-26T12:57:12.945Z,100986.42
2019-06-26T12:59:55.987Z,100991.22
2019-06-26T13:02:12.703Z,100987.09
2019-06-26T13:04:44.713Z,100987.90
2019-06-26T13:07:12.620Z,100970.15
2019-06-26T13:09:43.158Z,100970.15
2019-06-26T13:12:11.947Z,100974.11
2019-06-26T13:14:41.023Z,100969.19
2019-06-26T13:17:10.026Z,100967.68
2019-06-26T13:19:38.876Z,100970.58
2019-06-26T13:22:07.809Z,100967.34
2019-06-26T13:24:36.710Z,100962.41
2019-06-26T13:27:05.715Z,100961.09
2019-06-26T13:29:34.653Z,100959.64
2019-06-26T13:32:03.531Z,100958.69
2019-06-26T13:34:32.430Z,100963.80
2019-06-26T13:37:01.511Z,100947.87
2019-06-26T13:39:30.366Z,100958.32
2019-06-26T13:41:59.576Z,100947.44
2019-06-26T13:44:28.327Z,100952.94
2019-06-26T13:46:57.257Z,100953.39
2019-06-26T13:49:26.159Z,100953.86
2019-06-26T13:51:55.145Z,100950.07
2019-06-26T13:54:24.204Z,100950.65
2019-06-26T13:56:53.082Z,100950.03
2019-06-26T13:59:22.079Z,100945.80
2019-06-26T14:01:51.227Z,100943.80
2019-06-26T14:04:20.017Z,100943.78
2019-06-26T14:06:48.856Z,100946.02
2019-06-26T14:09:17.859Z,100940.38
2019-06-26T14:11:46.825Z,100946.40
2019-06-26T14:14:15.727Z,100945.21
2019-06-26T14:16:45.647Z,100934.77
2019-06-26T14:19:14.654Z,100937.41
2019-06-26T14:21:43.499Z,100937.20
2019-06-26T14:24:12.389Z,100931.72
2019-06-26T14:26:41.240Z,100933.64
2019-06-26T14:29:20.580Z,100931.81
2019-06-26T14:31:40.993Z,100930.58
2019-06-26T14:34:09.868Z,100929.98
2019-06-26T14:36:38.726Z,100933.97
2019-06-26T14:39:08.371Z,100932.63
2019-06-26T14:41:39.242Z,100923.25
2019-06-26T14:44:07.708Z,100923.25
2019-06-26T14:46:36.672Z,100920.33
2019-06-26T14:49:05.679Z,100919.52
2019-06-26T14:51:46.513Z,100924.32
2019-06-26T14:54:05.295Z,100921.05
2019-06-26T14:56:34.270Z,100919.11
2019-06-26T14:59:03.261Z,100921.31
2019-06-26T15:01:32.214Z,100916.58
2019-06-26T15:04:01.594Z,100915.91
2019-06-26T15:06:30.562Z,100917.50
2019-06-26T15:08:59.538Z,100919.05
2019-06-26T15:11:28.402Z,100903.36
2019-06-26T15:13:57.449Z,100911.28
2019-06-26T15:16:26.317Z,100911.63
2019-06-26T15:18:55.304Z,100913.09
2019-06-26T15:21:24.190Z,100911.86
2019-06-26T15:23:53.019Z,100907.84
2019-06-26T15:26:21.868Z,100904.84
2019-06-26T15:28:50.801Z,100906.41
2019-06-26T15:31:19.632Z,100905.41
2019-06-26T15:33:48.637Z,100900.41
2019-06-26T15:36:17.560Z,100903.61
2019-06-26T15:38:46.478Z,100900.27
2019-06-26T15:41:16.798Z,100897.38
2019-06-26T15:43:45.691Z,100897.06
2019-06-26T15:46:14.485Z,100891.96
2019-06-26T15:48:43.942Z,100889.72
2019-06-26T15:51:13.026Z,100889.85
2019-06-26T15:53:42.420Z,100891.73
2019-06-26T15:56:11.323Z,100880.38
2019-06-26T15:58:40.194Z,100882.73
2019-06-26T16:01:09.183Z,100874.45
2019-06-26T16:03:38.199Z,100876.47
2019-06-26T16:06:07.089Z,100868.43
2019-06-26T16:08:35.901Z,100868.63
2019-06-26T16:11:04.946Z,100868.63
2019-06-26T16:13:33.987Z,100865.42
2019-06-26T16:16:03.063Z,100864.59
2019-06-26T16:18:45.479Z,100859.94
2019-06-26T16:21:14.453Z,100863.14
2019-06-26T16:23:43.458Z,100860.34
2019-06-26T16:26:12.425Z,100854.14
2019-06-26T16:28:41.266Z,100833.22
2019-06-26T16:33:45.003Z,100851.73
2019-06-26T16:36:13.877Z,100852.91
2019-06-26T16:38:42.820Z,100850.55
2019-06-26T16:41:11.723Z,100853.48
2019-06-26T16:43:40.712Z,100847.42
2019-06-26T16:46:09.573Z,100848.72
2019-06-26T16:48:38.344Z,100848.92
2019-06-26T16:51:07.337Z,100854.92
2019-06-26T16:53:36.333Z,100847.13
2019-06-26T16:56:05.376Z,100849.69
2019-06-26T16:58:34.264Z,100849.41
2019-06-26T17:01:03.287Z,100852.28
2019-06-26T17:03:32.250Z,100849.58
2019-06-26T17:06:01.209Z,100842.78
2019-06-26T17:08:30.210Z,100845.77
2019-06-26T17:10:59.288Z,100846.57
2019-06-26T17:13:28.023Z,100840.28
2019-06-26T17:15:57.046Z,100848.27
2019-06-26T17:18:26.010Z,100849.19
2019-06-26T17:20:55.076Z,100851.59
2019-06-26T17:23:24.253Z,100859.13
2019-06-26T17:25:53.512Z,100857.59
2019-06-26T17:28:22.500Z,100862.52
2019-06-26T17:30:52.948Z,100859.11
2019-06-26T17:33:22.057Z,100852.23
2019-06-26T17:35:51.031Z,100862.16
2019-06-26T17:38:19.895Z,100855.95
2019-06-26T17:40:48.749Z,100862.97
2019-06-26T17:43:18.080Z,100855.32
2019-06-26T17:45:46.956Z,100851.80
2019-06-26T17:48:16.304Z,100854.52
2019-06-26T17:50:45.233Z,100851.61
2019-06-26T17:53:21.526Z,100861.45
2019-06-26T17:55:44.759Z,100862.12
2019-06-26T17:58:13.782Z,100863.84
2019-06-26T18:00:42.612Z,100856.80
2019-06-26T18:03:11.405Z,100862.73
2019-06-26T18:05:40.633Z,100864.86
2019-06-26T18:08:09.510Z,100859.15
2019-06-26T18:10:38.305Z,100865.91
2019-06-26T18:13:07.121Z,100860.11
2019-06-26T18:15:36.017Z,100865.89
2019-06-26T18:18:05.005Z,100857.37
2019-06-26T18:20:33.895Z,100864.20
2019-06-26T18:23:07.661Z,100869.73
2019-06-26T18:25:33.630Z,100870.81
2019-06-26T18:28:02.670Z,100873.98
2019-06-26T18:30:31.621Z,100881.05
2019-06-26T18:33:00.520Z,100875.96
2019-06-26T18:35:29.546Z,100877.23
2019-06-26T18:37:58.487Z,100879.44
2019-06-26T18:40:28.303Z,100885.67
2019-06-26T18:42:57.339Z,100881.37
2019-06-26T18:45:26.249Z,100886.22
2019-06-26T18:47:55.221Z,100889.27
2019-06-26T18:50:24.137Z,100893.57
2019-06-26T18:52:55.486Z,100896.66
2019-06-26T18:55:24.540Z,100899.02
2019-06-26T18:57:53.811Z,100890.44
2019-06-26T19:00:22.918Z,100885.86
2019-06-26T19:02:51.882Z,100895.41
2019-06-26T19:05:20.783Z,100895.05
2019-06-26T19:07:49.733Z,100893.77
2019-06-26T19:10:18.658Z,100900.28
2019-06-26T19:12:47.730Z,100905.39
2019-06-26T19:15:16.772Z,100908.02
2019-06-26T19:17:45.981Z,100906.70
2019-06-26T19:20:15.387Z,100903.67
2019-06-26T19:22:47.382Z,100903.65
2019-06-26T19:25:15.329Z,100907.02
2019-06-26T19:27:44.260Z,100907.14
2019-06-26T19:30:13.581Z,100910.67
2019-06-26T19:32:42.561Z,100906.94
2019-06-26T19:35:20.058Z,100909.42
2019-06-26T19:37:42.419Z,100918.84
2019-06-26T19:40:11.715Z,100922.16
2019-06-26T19:42:40.659Z,100916.95
2019-06-26T19:45:11.252Z,100920.56
2019-06-26T19:47:40.084Z,100926.97
2019-06-26T19:50:09.625Z,100919.86
2019-06-26T19:52:38.680Z,100932.63
2019-06-26T19:55:08.211Z,100927.66
2019-06-26T19:57:37.280Z,100937.76
2019-06-26T20:00:06.609Z,100930.70
2019-06-26T20:02:35.714Z,100943.88
2019-06-26T20:05:05.045Z,100941.89
2019-06-26T20:07:34.010Z,100945.23
2019-06-26T20:10:03.265Z,100947.67
2019-06-26T20:12:32.404Z,100948.98
2019-06-26T20:15:15.810Z,100949.49
2019-06-26T20:17:44.938Z,100960.08
2019-06-26T20:20:14.013Z,100947.47
2019-06-26T20:22:43.153Z,100954.32
2019-06-26T20:25:12.591Z,100957.75
2019-06-26T20:27:41.672Z,100957.75
2019-06-26T20:30:11.246Z,100955.91
2019-06-26T20:32:40.474Z,100960.30
2019-06-26T20:35:09.803Z,100956.94
2019-06-26T20:37:39.075Z,100961.03
2019-06-26T20:40:08.612Z,100965.47
2019-06-26T20:42:37.671Z,100963.03
2019-06-26T20:45:07.251Z,100963.77
2019-06-26T20:47:36.199Z,100966.63
2019-06-26T20:50:05.605Z,100961.57
2019-06-26T20:52:34.928Z,100969.39
2019-06-26T20:55:04.308Z,100977.38
2019-06-26T20:57:33.313Z,100988.27
2019-06-26T21:00:02.222Z,100995.28
2019-06-26T21:02:31.280Z,100991.32
2019-06-26T21:05:00.350Z,100992.57
2019-06-26T21:07:29.352Z,100997.28
2019-06-26T21:09:58.413Z,101010.50
2019-06-26T21:12:27.402Z,100976.66
2019-06-26T21:14:56.487Z,101011.66
2019-06-26T21:17:25.871Z,101009.46
2019-06-26T21:19:55.090Z,101007.19
2019-06-26T21:22:24.070Z,101012.23
2019-06-26T21:24:53.093Z,101010.65
2019-06-26T21:27:22.190Z,101008.45
2019-06-26T21:29:51.308Z,101009.59
2019-06-26T21:32:20.410Z,101012.48
2019-06-26T21:34:49.444Z,101007.09
2019-06-26T21:37:18.368Z,101008.97
2019-06-26T21:39:47.442Z,101019.09
2019-06-26T21:42:16.435Z,101025.76
2019-06-26T21:44:45.531Z,101014.89
2019-06-26T21:47:14.634Z,101026.32
2019-06-26T21:49:43.685Z,101030.95
2019-06-26T21:52:12.660Z,101028.19
2019-06-26T21:54:41.529Z,101030.47
2019-06-26T21:57:10.625Z,101030.30
2019-06-26T21:59:39.665Z,101031.61
2019-06-26T22:02:08.701Z,101029.95
2019-06-26T22:04:37.691Z,101035.24
2019-06-26T22:07:06.872Z,101035.07
2019-06-26T22:09:35.775Z,101036.90
2019-06-26T22:12:04.854Z,101038.40
2019-06-26T22:14:33.859Z,101039.85
2019-06-26T22:17:02.945Z,101038.35
2019-06-26T22:19:31.945Z,101047.58
2019-06-26T22:22:00.880Z,101043.55
2019-06-26T22:24:29.841Z,101044.09
2019-06-26T22:26:58.838Z,101045.91
2019-06-26T22:29:27.868Z,101050.14
2019-06-26T22:31:56.777Z,101054.46
2019-06-26T22:34:25.703Z,101050.25
2019-06-26T22:36:54.680Z,101054.70
2019-06-26T22:39:23.614Z,101058.39
2019-06-26T22:41:52.669Z,101057.25
2019-06-26T22:44:21.591Z,101060.53
2019-06-26T22:46:50.572Z,101057.76
2019-06-26T22:49:19.590Z,101062.97
2019-06-26T22:51:48.574Z,101057.45
2019-06-26T22:54:19.853Z,101064.00
2019-06-26T22:56:48.626Z,101068.48
2019-06-26T22:59:17.684Z,101067.27
2019-06-26T23:01:46.614Z,101074.01
2019-06-26T23:04:15.640Z,101073.56
2019-06-26T23:06:44.546Z,101075.44
2019-06-26T23:09:13.461Z,101075.53
2019-06-26T23:11:42.333Z,101081.27
2019-06-26T23:14:11.362Z,101081.67
2019-06-26T23:16:40.501Z,101083.70
2019-06-26T23:19:09.366Z,101080.30
2019-06-26T23:21:38.345Z,101084.94
2019-06-26T23:24:07.417Z,101080.45
2019-06-26T23:26:36.416Z,101076.84
2019-06-26T23:29:05.400Z,101085.88
2019-06-26T23:31:34.398Z,101084.73
2019-06-26T23:34:03.431Z,101084.83
2019-06-26T23:36:32.382Z,101081.77
2019-06-26T23:39:01.539Z,101077.96
2019-06-26T23:41:30.505Z,101081.53
2019-06-26T23:43:59.500Z,101088.55
2019-06-26T23:46:28.791Z,101089.16
2019-06-26T23:48:57.738Z,101096.92
2019-06-26T23:51:26.718Z,101095.63
2019-06-26T23:53:55.674Z,101098.99
2019-06-26T23:56:39.539Z,101102.26
2019-06-26T23:58:55.581Z,101105.66
